Date,TemperatureHighF,TemperatureAvgF,TemperatureLowF,DewpointHighF,DewpointAvgF,DewpointLowF,HumidityHigh,HumidityAvg,HumidityLow,PressureMaxIn,PressureMinIn,WindSpeedMaxMPH,WindSpeedAvgMPH,GustSpeedMaxMPH,PrecipitationSumIn
2013-1-1,45.9,40.7,36.0,40.9,38.3,35.2,97,91,81,29.84,29.28,11,5,20,0.01
2013-1-2,55.2,51.2,43.5,54.9,50.7,41.4,99,98,92,30.04,29.81,14,7,26,0.00
2013-1-3,57.7,53.9,52.2,54.8,52.7,50.4,99,96,88,30.30,30.04,10,5,20,0.00
2013-1-4,55.8,51.3,47.7,51.2,49.1,46.0,96,92,82,30.33,30.21,12,6,23,0.00
2013-1-5,56.1,52.0,48.7,52.8,49.8,46.6,99,93,84,30.22,30.11,14,6,26,0.00
2013-1-6,53.2,50.8,43.9,52.3,48.0,43.6,99,90,74,30.22,29.96,12,5,24,0.00
2013-1-7,55.0,52.4,49.1,53.9,51.6,47.8,99,97,89,29.96,29.76,16,7,30,0.07
2013-1-8,54.7,49.3,37.9,54.4,48.0,37.7,99,96,80,30.03,29.75,11,4,23,0.04
2013-1-9,57.7,38.3,29.8,44.3,35.7,29.6,99,92,59,30.01,29.81,3,0,6,0.00
2013-1-10,45.9,39.0,28.9,45.6,38.4,28.7,99,98,91,29.81,29.66,13,3,19,0.05
2013-1-11,49.5,42.2,32.4,46.2,40.5,32.1,99,94,81,29.80,29.55,8,2,11,0.01
2013-1-12,45.5,43.5,39.2,45.1,41.1,33.7,99,91,78,29.82,29.50,9,4,17,0.04
2013-1-13,39.0,35.6,30.4,38.6,34.8,30.0,99,97,81,29.92,29.82,9,3,15,0.04
2013-1-14,45.0,40.3,34.7,42.1,39.0,34.5,99,95,79,29.85,29.64,15,6,34,0.06
2013-1-15,45.0,37.1,32.2,39.1,35.6,31.9,99,94,78,29.69,29.48,6,2,12,0.00
2013-1-16,44.2,41.4,40.1,43.1,39.5,37.1,99,93,85,29.61,29.47,9,2,15,0.19
2013-1-17,49.6,45.3,42.4,48.5,44.2,41.3,99,96,83,29.61,29.28,19,5,34,0.02
2013-1-18,44.1,38.2,35.6,41.0,37.5,35.3,99,97,88,29.28,28.96,27,13,44,0.85
2013-1-19,39.7,37.4,36.0,39.5,36.0,30.5,99,95,76,29.34,29.02,12,5,22,0.06
2013-1-20,38.1,37.1,34.3,34.2,31.5,29.1,98,80,73,29.33,29.12,12,6,21,0.00
2013-1-21,42.3,36.2,33.6,41.2,34.5,31.2,99,94,77,29.12,29.07,7,2,14,0.19
2013-1-22,37.0,32.4,27.0,36.3,31.9,26.7,99,98,93,29.49,29.11,3,0,8,0.01
2013-1-23,41.4,36.7,30.6,37.2,34.4,30.3,99,92,79,29.61,29.45,11,3,15,0.00
2013-1-24,43.9,39.7,36.0,39.7,37.0,34.2,98,90,81,29.75,29.61,11,3,21,0.00
2013-1-25,49.6,45.6,42.3,48.1,43.6,39.0,99,92,85,29.65,29.08,24,9,47,0.66
2013-1-26,54.3,45.6,37.4,53.4,44.0,36.1,99,94,87,29.46,28.70,29,10,44,0.09
2013-1-27,54.0,41.6,36.5,53.7,39.4,35.3,99,92,73,29.21,28.71,21,10,37,0.33
2013-1-28,53.2,45.6,36.9,48.0,40.8,34.7,94,84,73,29.26,28.81,33,14,59,0.24
2013-1-29,58.1,49.9,45.1,55.8,46.7,41.4,99,89,81,29.18,28.87,24,10,41,0.18
2013-1-30,49.5,45.8,42.8,45.2,41.3,37.7,95,84,68,29.57,29.08,21,11,46,0.35
2013-1-31,51.1,45.2,40.8,46.1,40.4,38.2,97,83,71,29.50,29.25,30,12,48,0.31
2013-2-1,46.6,42.2,36.0,43.9,37.7,32.1,96,85,70,29.65,29.18,16,9,35,0.00
2013-2-2,49.5,39.9,32.5,38.9,34.1,31.2,98,81,57,30.02,29.65,9,3,20,0.00
2013-2-3,52.3,48.3,41.2,51.5,47.6,38.4,99,98,86,29.89,29.58,14,8,30,0.12
2013-2-4,50.4,43.7,34.0,50.1,39.7,33.1,99,86,70,29.69,29.42,21,10,38,0.21
2013-2-5,46.8,39.0,32.7,42.1,36.0,31.2,99,89,76,29.49,29.18,21,11,42,0.05
2013-2-6,50.2,41.5,34.3,37.2,34.3,31.9,92,76,54,30.02,29.49,16,7,32,0.00
2013-2-7,46.0,38.2,33.4,45.2,37.4,32.2,99,97,91,30.04,29.66,19,5,40,0.24
2013-2-8,47.8,42.9,39.4,45.4,41.5,38.1,99,95,90,30.04,29.94,8,4,14,0.00
2013-2-9,54.0,46.2,41.7,50.1,44.9,41.5,99,96,80,29.96,29.42,9,3,15,0.09
2013-2-10,45.7,43.8,40.8,45.4,43.5,40.6,99,99,97,29.42,28.94,11,4,21,0.67
2013-2-11,41.4,40.2,39.0,41.1,39.3,37.1,99,97,87,29.56,28.98,8,2,14,0.02
2013-2-12,43.3,41.0,38.8,42.7,40.1,38.6,99,96,89,29.73,29.56,10,3,18,0.01
2013-2-13,54.9,48.9,42.8,53.5,48.0,41.4,99,97,92,29.70,29.39,17,7,33,0.19
2013-2-14,52.5,45.8,41.4,48.3,43.1,40.4,99,91,70,29.78,29.42,17,6,30,0.02
2013-2-15,57.2,45.3,39.0,47.0,41.3,38.0,99,87,62,29.87,29.78,8,3,14,0.00
2013-2-16,59.5,49.9,44.2,51.0,45.7,40.4,99,86,72,29.83,29.77,16,5,28,0.00
2013-2-17,51.1,47.5,42.6,43.3,40.8,35.2,84,78,70,29.78,29.69,19,9,30,0.00
2013-2-18,52.0,44.6,41.4,39.7,37.2,34.3,90,76,57,29.81,29.69,15,7,24,0.00
2013-2-19,55.0,40.6,30.0,45.6,36.6,29.8,99,87,63,29.83,29.75,14,3,21,0.00
2013-2-20,69.8,42.1,33.6,62.1,37.3,31.7,99,84,68,29.88,29.77,103,8,103,0.05
2013-2-21,40.3,38.2,36.5,34.3,32.0,29.9,81,78,76,29.88,29.86,18,13,30,0.02
2013-3-20,42.1,40.2,39.0,38.9,37.7,36.0,95,90,86,29.60,29.56,10,5,18,0.01
2013-3-21,43.3,41.0,39.6,40.7,38.5,36.5,99,91,79,29.59,29.31,29,15,46,1.84
2013-3-22,42.4,40.9,40.3,42.2,40.7,40.0,99,99,99,29.26,29.21,28,24,41,0.07
2013-3-23,39.7,38.2,37.0,39.1,37.4,34.0,99,97,88,29.63,29.38,20,11,30,0.00
2013-3-24,37.2,36.1,35.2,34.0,31.0,27.1,88,82,71,29.76,29.62,23,14,36,0.17
2013-3-25,39.0,37.2,35.2,29.3,27.5,25.9,75,68,63,29.81,29.76,21,14,37,0.09
2013-3-26,39.6,35.0,32.2,34.5,30.5,25.7,99,84,65,29.80,29.73,17,8,30,0.01
2013-3-27,39.7,34.8,32.0,35.0,31.9,26.4,99,90,70,29.73,29.69,18,5,29,0.06
2013-3-28,40.8,36.3,31.6,34.0,30.2,26.0,99,80,61,29.71,29.61,17,7,27,0.07
2013-3-29,39.6,36.7,34.9,26.8,25.7,24.6,68,65,59,29.61,29.57,16,10,27,0.00
2013-3-30,44.6,39.4,34.9,28.8,26.4,24.1,71,60,48,29.66,29.56,16,8,24,0.00
2013-3-31,42.1,39.7,37.6,31.2,29.3,25.7,74,67,60,29.65,29.53,18,10,27,0.00
2013-4-1,40.5,38.6,36.3,31.0,28.7,27.1,74,68,63,29.64,29.52,21,12,31,0.02
2013-4-2,45.3,39.9,33.3,33.8,29.3,25.7,76,66,52,29.85,29.64,17,8,24,0.00
2013-4-3,46.8,41.3,32.7,34.4,30.9,26.0,92,68,47,29.93,29.85,17,6,27,0.00
2013-4-4,47.7,40.6,31.3,35.4,31.3,27.0,94,71,48,29.92,29.88,14,4,29,0.00
2013-4-5,48.6,40.4,33.3,40.0,31.9,27.0,94,73,53,30.00,29.89,9,2,18,0.01
2013-4-6,54.5,40.9,26.4,37.9,31.8,24.7,95,72,48,30.04,29.93,11,3,16,0.00
2013-4-7,48.2,42.3,36.9,38.5,34.9,31.0,88,76,55,29.93,29.51,18,7,29,0.01
2013-4-8,47.7,44.0,40.1,37.8,36.2,32.7,90,74,65,29.51,29.20,24,11,37,0.08
2013-4-9,46.8,41.6,38.7,39.4,36.9,34.9,92,84,74,29.31,29.17,20,8,33,0.02
2013-4-10,49.8,44.8,40.1,47.8,43.2,38.2,99,94,80,29.32,29.16,12,5,22,0.02
2013-4-11,50.0,45.5,43.3,48.2,44.8,43.1,99,98,86,29.16,28.96,11,4,19,0.41
2013-4-12,52.9,46.7,44.1,44.8,44.0,41.9,99,91,71,29.39,29.31,6,3,12,0.02
2013-4-13,57.2,48.9,39.4,55.7,47.1,39.1,99,94,71,29.40,29.09,25,8,37,0.04
2013-4-14,61.5,55.4,50.0,55.5,51.2,48.0,99,86,71,29.24,29.09,30,17,49,0.15
2013-4-15,64.6,54.9,50.7,49.7,47.4,44.7,91,77,52,29.50,29.18,25,13,43,0.05
2013-4-16,61.5,54.3,47.3,48.2,40.1,30.9,87,62,36,29.62,29.17,26,12,42,0.02
2013-4-17,60.8,53.9,47.7,56.5,49.3,39.5,99,85,71,29.60,28.91,31,16,53,0.11
2013-4-18,55.9,48.7,44.4,47.1,44.7,42.1,99,87,63,29.82,28.98,28,12,52,0.51
2013-4-19,64.4,50.5,39.0,45.6,41.2,37.1,99,75,39,30.17,29.83,9,4,16,0.00
2013-4-20,62.4,51.1,39.4,47.2,42.4,38.1,96,75,51,30.18,29.92,14,6,22,0.00
2013-4-21,58.1,50.1,44.2,50.1,44.0,39.9,99,81,58,29.91,29.65,16,7,27,0.07
2013-4-22,62.4,52.2,44.6,55.2,48.2,41.6,99,87,66,29.68,29.52,17,8,30,0.00
2013-4-23,67.6,56.2,46.9,53.4,49.3,44.7,99,80,57,29.83,29.65,14,6,23,0.00
2013-4-24,59.5,54.9,46.2,55.7,52.2,46.0,99,91,77,29.96,29.74,14,7,25,0.08
2013-4-25,58.5,51.0,44.6,47.6,43.6,39.3,99,78,53,29.89,29.83,14,6,32,0.37
2013-4-26,53.1,45.4,36.9,42.5,37.7,32.4,99,76,49,29.89,29.75,20,8,33,0.04
2013-4-27,59.2,49.0,39.4,40.8,37.6,34.2,89,67,41,29.89,29.81,13,4,19,0.00
2013-4-28,55.9,48.5,42.3,51.4,42.1,36.8,99,79,61,29.82,29.55,16,8,30,0.01
2013-4-29,58.5,48.5,40.1,44.8,39.1,34.6,93,72,45,29.96,29.62,19,9,35,0.00
2013-4-30,62.6,49.9,36.9,44.4,38.1,34.2,99,68,39,30.06,29.96,8,2,15,0.00
2013-5-1,65.1,52.6,42.4,53.2,42.1,34.9,94,71,40,30.01,29.95,11,4,21,0.00
2013-5-2,66.0,53.8,40.8,49.4,44.4,39.4,99,74,48,30.01,29.83,11,3,20,0.00
2013-5-3,61.3,55.1,49.6,52.8,48.4,45.9,99,79,61,29.83,29.56,17,9,30,0.07
2013-5-4,63.3,54.0,46.8,54.6,46.3,41.4,99,78,49,29.70,29.52,16,8,30,0.02
2013-5-5,69.8,59.3,52.9,54.5,51.6,47.8,99,78,50,29.79,29.69,14,7,23,0.00
2013-5-6,70.9,59.1,50.4,52.6,49.9,46.6,97,74,52,29.78,29.70,11,5,20,0.00
2013-5-7,65.3,56.1,45.5,55.3,48.4,45.2,99,77,58,29.73,29.37,16,5,24,0.00
2013-5-8,61.9,54.3,47.5,56.9,50.2,40.9,99,87,64,29.37,29.00,21,10,34,0.19
2013-5-9,56.8,50.0,46.6,51.7,45.6,39.9,96,85,71,29.27,28.87,23,13,40,0.14
2013-5-10,61.2,52.2,44.8,53.7,45.0,33.6,99,80,39,29.42,29.27,17,8,30,0.07
2013-5-11,54.7,48.8,44.1,49.7,43.4,39.2,99,83,59,29.66,29.38,24,10,38,0.11
2013-5-12,60.1,51.1,42.4,55.1,47.5,39.4,99,88,67,29.68,29.47,20,8,34,0.02
2013-5-13,54.1,48.0,42.8,44.0,40.2,37.4,92,75,57,29.54,29.41,22,9,40,0.05
2013-5-14,63.0,50.0,40.1,45.4,40.2,35.6,96,73,40,29.41,29.06,12,6,24,0.00
2013-5-15,56.7,48.6,42.8,44.9,41.0,36.5,93,76,54,29.24,29.12,16,7,39,0.02
2013-5-16,58.1,47.2,39.6,46.1,41.9,35.4,96,82,56,29.32,29.16,13,4,99,16.94
2013-5-17,60.6,49.7,35.2,48.2,41.9,35.0,99,78,50,29.62,29.32,8,2,18,0.00
2013-5-18,55.9,50.3,45.7,51.0,46.4,39.0,99,87,68,29.62,29.42,13,4,21,0.01
2013-5-19,70.0,57.1,49.5,54.2,49.5,46.2,99,78,49,29.73,29.47,8,2,14,0.01
2013-5-20,61.0,56.6,52.9,55.7,53.2,49.1,96,89,78,29.84,29.71,11,5,25,0.00
2013-5-21,68.4,56.7,48.9,53.0,48.8,46.6,98,77,54,29.89,29.83,14,7,25,0.00
2013-5-22,60.6,53.8,48.4,51.1,43.2,37.5,99,70,48,29.97,29.88,19,8,28,0.00
2013-5-23,56.5,48.9,41.2,42.6,38.9,35.0,93,70,48,29.90,29.78,17,7,32,0.02
2013-5-24,61.5,51.9,44.2,41.6,38.8,36.2,83,64,44,29.91,29.73,15,5,29,0.00
2013-5-25,70.3,57.1,39.9,60.8,42.9,38.1,96,63,38,29.93,29.84,8,2,15,0.19
2013-5-26,69.8,58.6,50.5,56.7,49.8,44.7,99,76,43,29.87,29.46,14,6,27,0.05
2013-5-27,63.7,54.3,47.5,52.2,48.0,42.5,99,82,50,29.45,29.12,17,6,36,0.35
2013-5-28,62.1,53.8,44.4,49.9,45.8,42.9,99,76,55,29.37,29.19,8,3,16,0.01
2013-5-29,73.9,60.0,50.0,53.9,49.8,47.0,99,73,45,29.69,29.36,10,3,22,0.22
2013-5-30,74.7,62.9,50.5,51.7,48.5,46.1,86,63,42,29.83,29.68,13,5,27,0.00
2013-5-31,64.9,56.2,48.2,56.2,48.6,39.9,99,77,55,29.98,29.83,14,5,21,24.17
2013-6-1,62.6,54.0,44.6,52.8,46.8,39.8,93,77,58,30.09,29.98,13,5,22,0.04
2013-6-2,70.3,59.4,50.7,52.6,49.4,45.6,98,72,50,30.16,30.08,6,2,11,0.00
2013-6-3,72.0,62.3,54.7,58.6,54.3,47.3,99,77,57,30.20,30.14,7,2,11,0.00
2013-6-4,69.1,61.7,52.3,55.6,48.9,40.8,88,66,40,30.15,29.96,11,4,17,0.00
2013-6-5,68.7,60.2,49.1,57.1,49.7,45.4,96,70,51,29.96,29.81,14,5,21,0.00
2013-6-6,66.7,60.5,50.4,58.2,51.7,48.8,99,75,57,29.94,29.83,13,4,21,0.00
2013-6-7,72.1,63.1,49.5,60.9,51.4,45.1,99,70,48,29.97,29.94,13,3,19,0.00
2013-6-8,77.2,65.7,53.4,55.5,51.2,47.2,85,62,44,29.97,29.79,8,2,12,0.00
2013-6-9,78.6,63.7,51.1,54.3,47.6,40.1,90,60,36,29.79,29.62,12,5,24,0.00
2013-6-10,70.5,60.7,50.0,53.7,48.6,44.4,94,66,48,29.63,29.49,18,5,27,0.02
2013-6-11,74.7,59.0,52.3,63.2,56.5,51.0,99,92,64,29.49,29.31,10,5,21,0.41
2013-6-12,70.2,58.2,54.1,58.9,54.6,51.0,99,89,53,29.39,29.22,11,3,18,0.28
2013-6-13,65.7,57.1,50.4,55.7,51.2,44.6,99,83,52,29.58,29.22,16,5,28,0.09
2013-6-14,67.3,56.5,50.0,57.5,51.5,47.1,99,84,60,29.58,29.07,16,8,32,0.07
2013-6-15,68.9,56.7,34.5,55.0,49.3,26.4,99,79,42,29.41,29.18,14,8,28,0.04
2013-6-16,73.2,57.5,51.8,54.6,52.4,47.9,99,86,47,29.62,29.42,11,4,103,0.11
2013-6-17,66.2,57.2,52.5,59.4,54.4,52.2,99,91,66,29.71,29.62,10,3,17,0.08
2013-6-18,81.0,62.7,47.3,60.3,54.0,47.0,99,78,43,29.69,29.62,10,3,16,0.00
2013-6-19,73.2,63.2,53.6,56.0,50.5,47.1,90,67,44,29.75,29.69,11,4,21,0.00
2013-6-20,75.6,62.6,53.4,57.3,52.0,49.1,92,71,44,29.71,29.46,12,3,18,0.00
2013-6-21,74.3,62.4,54.5,60.2,55.4,49.4,99,81,46,29.53,29.26,12,6,22,0.01
2013-6-22,64.8,58.3,53.6,58.2,54.5,51.6,99,88,65,29.27,29.09,17,9,31,0.12
2013-6-23,60.8,56.4,52.5,54.9,51.5,45.2,99,85,61,29.85,29.28,20,12,36,0.02
2013-6-24,67.5,57.9,48.4,51.3,48.5,45.5,99,74,49,29.97,29.84,11,5,19,0.00
2013-6-25,72.9,62.9,49.8,56.6,52.7,47.4,99,72,48,30.12,29.97,8,2,14,0.00
2013-6-26,73.8,63.8,54.5,55.9,51.1,46.7,93,66,42,30.19,30.12,8,3,15,0.00
2013-6-27,67.1,59.2,51.8,65.9,57.6,49.0,99,95,76,30.17,29.93,11,5,21,0.01
2013-6-28,66.6,61.3,55.4,63.4,59.2,51.6,99,93,81,29.94,29.78,19,8,30,0.01
2013-6-29,76.6,61.7,52.9,65.0,57.2,50.0,99,87,61,29.92,29.87,14,6,27,12.09
2013-6-30,68.7,61.6,55.2,61.8,53.9,46.3,99,77,57,29.91,29.66,17,8,34,0.17
2013-7-1,69.1,59.3,51.8,52.1,48.9,45.8,95,71,46,29.69,29.59,11,5,19,0.00
2013-7-2,68.4,59.3,54.9,64.1,55.8,49.3,99,89,73,29.58,29.12,15,6,26,0.13
2013-7-3,72.5,62.0,53.8,62.7,57.1,53.5,99,86,60,29.52,29.19,11,6,21,0.00
2013-7-4,67.5,62.9,54.1,62.9,55.0,48.5,99,77,58,29.93,29.49,17,8,29,0.01
2013-7-5,79.2,63.5,51.8,59.3,53.2,49.2,94,72,48,30.06,29.93,10,4,15,0.00
2013-7-6,82.8,68.0,53.8,64.0,55.3,50.4,91,68,42,30.13,30.01,8,3,14,0.00
2013-7-7,77.5,69.8,62.2,64.9,62.4,55.9,99,79,64,30.26,30.14,8,2,13,0.00
2013-7-8,82.8,71.3,61.0,64.5,59.6,55.8,96,70,48,30.26,30.17,9,3,14,0.00
2013-7-9,87.3,75.1,58.5,69.3,60.5,57.5,99,65,43,30.17,30.02,8,2,14,0.00
2013-7-10,78.8,70.7,57.7,65.2,61.3,57.5,99,74,59,30.04,29.98,10,2,15,0.00
2013-7-11,75.4,68.7,60.1,65.0,61.0,58.7,99,78,60,29.99,29.94,11,4,19,0.00
2013-7-12,94.1,74.1,55.0,63.6,57.0,51.9,95,63,28,29.96,29.91,5,1,11,0.00
2013-7-13,87.6,72.1,60.8,67.7,63.1,57.7,99,75,48,30.01,29.92,11,3,16,0.00
2013-7-14,86.9,70.7,59.0,65.0,58.4,50.4,94,69,33,30.00,29.88,11,3,14,0.00
2013-7-15,74.8,64.5,57.0,60.7,56.5,53.4,99,77,55,29.94,29.91,9,4,14,0.00
2013-7-16,82.0,68.9,59.2,60.4,58.0,54.9,95,70,44,29.93,29.89,9,2,14,0.00
2013-7-17,86.9,72.6,63.1,62.9,58.1,54.6,85,63,36,30.01,29.92,8,2,11,0.00
2013-7-18,84.6,71.8,57.6,64.3,57.8,53.9,92,64,43,30.03,29.99,11,3,16,0.00
2013-7-19,82.4,72.8,63.7,65.9,63.7,61.0,99,76,51,30.02,29.91,11,5,17,0.00
2013-7-20,77.2,70.6,63.3,68.1,63.3,61.1,99,80,61,29.92,29.83,13,4,22,0.00
2013-7-21,73.4,66.5,61.5,62.6,60.0,56.5,99,81,61,29.83,29.68,10,4,17,0.00
2013-7-22,78.4,69.6,62.2,67.0,63.5,58.9,99,82,66,29.69,29.55,11,3,20,0.00
2013-7-23,79.5,69.8,62.4,64.8,61.7,57.5,98,77,50,29.55,29.45,12,4,21,0.00
2013-7-24,76.1,69.7,63.5,62.2,59.3,55.2,90,71,52,29.49,29.43,13,5,24,0.01
2013-7-25,83.5,66.8,60.8,70.1,63.5,59.0,99,91,49,29.47,29.40,8,2,15,0.86
2013-7-26,81.1,67.6,56.8,68.2,60.4,56.6,99,80,50,29.49,29.44,11,2,16,0.09
2013-7-27,75.9,65.0,54.3,64.2,59.6,54.0,99,84,53,29.47,29.26,7,1,14,0.11
2013-7-28,80.6,64.9,52.3,68.6,59.0,52.1,99,84,46,29.27,29.18,10,2,16,0.19
2013-7-29,75.9,65.0,59.5,64.8,59.8,54.0,99,85,57,29.48,29.22,12,4,25,0.08
2013-7-30,75.7,65.5,54.1,63.6,54.4,51.0,95,70,46,29.53,29.42,15,5,31,0.05
2013-7-31,71.6,62.2,57.7,70.4,60.2,54.0,99,93,78,29.54,29.31,13,5,24,0.26
2013-8-1,77.5,68.7,65.3,67.5,65.7,63.1,99,91,67,29.34,29.16,14,6,27,0.11
2013-8-2,77.4,66.5,57.7,65.2,58.8,52.8,99,78,48,29.30,29.13,17,8,30,0.20
2013-8-3,76.1,62.3,55.8,59.9,56.0,51.3,99,82,44,29.55,29.29,15,6,28,0.17
2013-8-4,75.2,63.7,55.4,62.7,59.1,55.1,99,86,56,29.56,29.47,8,3,16,0.21
2013-8-5,70.7,62.8,58.6,60.3,55.2,47.8,99,79,52,29.61,29.42,14,4,24,0.02
2013-8-6,72.7,63.3,56.5,60.0,55.1,50.9,99,77,51,29.62,29.54,8,4,17,0.00
2013-8-7,81.5,65.4,53.6,60.1,53.6,48.8,98,69,40,29.71,29.56,10,2,17,0.00
2013-8-8,78.4,66.6,58.6,62.0,56.2,51.6,99,72,42,29.69,29.54,14,4,24,0.04
2013-8-9,66.9,61.7,57.7,59.1,54.3,50.6,99,79,59,29.86,29.58,12,5,21,0.00
2013-8-10,75.2,63.9,56.8,57.2,54.1,50.5,89,72,51,29.86,29.70,12,4,24,0.01
2013-8-11,70.2,60.5,54.0,56.2,52.8,47.3,99,78,46,29.72,29.64,16,6,26,0.00
2013-8-12,68.2,60.1,52.3,55.2,50.4,45.2,92,72,49,29.79,29.65,17,7,29,0.00
2013-8-13,71.6,61.7,54.7,61.7,56.6,47.7,99,84,65,29.82,29.76,9,4,15,0.06
2013-8-14,79.5,67.5,59.0,69.5,61.5,55.6,99,83,60,29.78,29.61,11,3,21,0.04
2013-8-15,74.7,66.6,61.7,68.1,65.2,61.4,99,96,73,29.61,29.40,12,6,27,0.65
2013-8-16,72.9,63.6,54.1,61.3,57.4,53.9,99,82,59,29.57,29.48,10,4,24,0.04
2013-8-17,77.2,65.3,55.9,66.8,60.2,55.7,99,84,65,29.51,29.11,17,8,34,0.02
2013-8-18,69.3,60.2,54.5,57.1,52.7,47.7,99,79,53,29.54,29.26,14,6,24,0.00
2013-8-19,72.0,61.8,52.5,59.3,53.7,50.2,98,77,49,29.90,29.55,18,5,24,0.00
2013-8-20,75.0,65.4,58.8,58.4,56.8,54.7,95,76,54,29.92,29.76,13,5,27,0.00
2013-8-21,76.3,67.5,62.2,62.6,60.0,58.0,96,79,57,29.76,29.70,14,7,27,0.00
2013-8-22,73.9,63.9,57.6,63.1,59.5,57.3,99,87,64,29.75,29.56,8,2,14,0.00
2013-8-23,65.3,60.7,56.3,64.1,60.1,56.0,99,98,87,29.59,29.49,10,2,21,0.21
2013-8-24,66.9,58.6,49.8,58.4,53.6,47.3,99,86,56,29.66,29.56,8,3,14,0.02
2013-8-25,72.3,63.6,56.8,66.0,58.5,54.6,99,85,64,29.81,29.58,8,2,14,0.02
2013-8-26,72.9,61.6,53.8,63.3,56.7,53.5,99,86,61,29.83,29.75,7,2,14,0.00
2013-8-27,73.4,63.0,57.0,66.3,60.9,56.2,99,93,77,29.87,29.74,10,2,14,0.00
2013-8-28,73.4,63.0,54.1,59.6,54.2,49.6,99,76,51,29.89,29.76,8,2,17,0.00
2013-8-29,75.2,66.2,59.0,64.0,59.8,56.7,98,82,58,29.78,29.70,12,6,24,0.00
2013-8-30,72.3,63.4,51.8,64.7,58.0,47.7,97,83,65,29.89,29.61,17,6,30,0.02
2013-8-31,66.4,57.6,48.7,50.4,47.5,44.5,88,71,53,30.09,29.89,15,6,26,0.00
2013-9-1,69.3,58.7,51.3,53.1,50.8,48.3,91,76,56,30.09,29.96,16,7,30,0.00
2013-9-2,74.7,64.7,58.3,64.1,59.9,51.3,99,86,69,29.99,29.92,15,6,28,0.00
2013-9-3,79.5,67.6,58.1,66.2,57.1,49.1,99,74,39,29.97,29.83,11,3,18,0.00
2013-9-4,79.7,65.0,52.7,57.9,52.9,44.6,99,71,34,29.83,29.55,14,4,24,0.00
2013-9-5,69.1,59.6,52.0,58.0,48.9,41.5,97,71,41,29.60,29.52,11,4,19,0.00
2013-9-6,68.7,53.3,42.3,52.3,45.6,40.7,99,79,39,29.55,29.47,8,2,17,0.04
2013-9-7,53.4,50.1,47.8,50.6,48.6,46.1,99,95,77,29.52,29.46,14,7,25,0.24
2013-9-8,63.7,53.8,46.9,56.0,49.6,46.2,99,87,61,29.60,29.48,11,4,21,0.13
2013-9-9,68.7,55.2,42.6,54.0,49.2,42.4,99,83,53,29.88,29.58,11,4,24,0.00
2013-9-10,67.5,57.2,48.0,54.4,51.2,47.8,99,82,57,29.97,29.87,14,6,27,0.00
2013-9-11,63.5,58.6,53.8,63.2,58.1,52.9,99,98,93,29.97,29.76,8,4,110,0.02
2013-9-12,66.7,62.3,56.1,66.4,62.1,55.8,99,99,99,29.77,29.61,11,5,23,0.09
2013-9-13,62.4,54.4,50.7,55.5,50.4,46.7,99,88,62,29.76,29.70,6,2,14,0.00
2013-9-14,70.0,55.4,45.7,51.7,45.9,39.7,99,75,36,29.75,29.63,8,2,15,0.00
2013-9-15,63.0,56.0,47.7,62.7,50.2,39.5,99,82,51,29.63,29.09,24,11,47,0.09
2013-9-16,57.9,50.4,45.9,46.3,43.2,41.2,90,77,58,29.26,29.17,19,10,35,0.02
2013-9-17,55.0,51.4,49.3,54.8,49.0,43.2,99,92,77,29.25,28.97,11,3,24,0.45
2013-9-18,58.6,52.5,48.2,51.9,47.7,43.5,99,85,61,29.49,29.10,16,6,30,0.02
2013-9-19,64.8,56.9,49.6,60.0,50.4,45.6,99,80,62,29.55,29.18,21,9,34,0.07
2013-9-20,69.1,57.7,50.2,53.4,48.6,45.5,86,73,50,29.69,29.55,11,4,81,0.00
2013-9-21,77.7,66.0,57.0,63.9,60.2,53.2,99,83,61,29.84,29.65,11,4,21,0.38
2013-9-22,81.3,68.9,59.5,62.3,60.0,58.6,98,76,50,29.93,29.83,8,4,15,0.00
2013-9-23,83.7,65.5,53.2,68.8,60.1,53.0,99,85,52,29.89,29.67,8,2,11,0.00
2013-9-24,75.2,60.4,57.9,64.7,59.1,57.6,99,96,66,29.67,29.51,9,3,14,0.01
2013-9-25,64.2,59.7,57.4,63.9,59.5,57.1,99,99,99,29.52,29.46,8,2,13,0.02
2013-9-26,62.6,59.6,57.4,62.3,59.3,57.1,99,99,99,29.58,29.50,11,4,18,0.01
2013-9-27,69.6,60.9,55.9,67.5,58.6,55.7,99,93,76,29.59,29.45,11,2,17,0.00
2013-9-28,69.1,60.0,54.5,60.3,57.7,54.2,99,93,71,29.45,29.33,10,2,17,0.00
2013-9-29,65.5,59.8,57.7,59.3,56.2,52.5,99,88,68,29.35,29.30,14,5,24,0.02
2013-9-30,61.3,58.9,56.3,60.7,58.2,55.6,99,98,89,29.30,29.24,14,6,21,0.02
2013-10-1,61.3,59.6,56.7,61.1,59.3,56.4,99,99,99,29.27,29.21,18,8,28,0.22
2013-10-2,73.6,63.4,59.7,66.5,62.3,59.4,99,96,73,29.22,29.18,14,6,26,0.32
2013-10-3,65.5,62.6,60.1,65.2,62.3,59.8,99,99,95,29.21,29.11,8,3,16,0.57
2013-10-4,64.8,59.7,54.5,61.8,58.9,54.2,99,97,85,29.55,29.13,9,4,19,0.02
2013-10-5,73.2,60.6,52.2,59.7,55.0,50.3,99,84,56,29.77,29.55,8,4,19,0.00
2013-10-6,70.3,63.9,57.4,66.2,60.3,49.8,99,88,74,29.76,29.71,14,6,22,0.01
2013-10-7,71.2,65.1,62.1,63.9,62.0,59.6,99,90,73,29.74,29.66,14,7,26,0.00
2013-10-8,65.3,60.1,54.7,62.3,56.8,52.7,99,90,65,29.91,29.70,11,5,20,0.00
2013-10-9,58.8,52.3,44.1,53.7,46.9,38.0,99,83,57,29.91,29.79,17,6,36,0.00
2013-10-10,62.6,49.7,38.3,44.6,40.3,36.7,98,73,45,30.00,29.87,11,2,19,0.00
2013-10-11,59.2,50.1,40.5,51.9,46.4,39.2,98,87,76,30.00,29.96,7,2,18,0.00
2013-10-12,55.6,53.5,51.1,54.6,50.5,47.6,99,90,81,29.96,29.77,7,2,16,0.00
2013-10-13,55.9,52.9,49.1,54.2,50.5,46.0,99,92,76,29.77,29.56,4,1,11,0.00
2013-10-14,52.9,49.5,47.5,52.6,49.1,47.2,99,99,95,29.57,29.52,3,1,8,0.04
2013-10-20,65.1,56.6,51.6,58.7,53.9,51.3,99,91,68,29.13,28.87,14,5,24,0.06
2013-10-21,63.5,57.0,50.7,63.2,56.7,50.4,99,99,99,29.14,28.80,17,5,24,0.40
2013-10-22,67.8,60.6,56.8,61.3,58.3,56.2,99,93,72,28.80,28.61,12,4,24,0.08
2013-10-23,57.4,52.6,45.1,57.1,48.1,41.5,99,85,58,29.34,28.62,18,7,27,0.01
2013-10-24,62.1,53.0,43.3,57.2,51.1,42.9,99,94,78,29.42,29.19,15,4,23,0.01
2013-10-25,66.4,59.2,55.0,60.6,57.6,54.8,99,95,75,29.19,28.93,15,7,24,0.18
2013-10-26,60.1,53.6,50.7,56.0,51.8,49.1,99,94,75,29.10,28.80,20,6,30,0.22
2013-10-27,59.7,53.3,49.8,53.6,50.1,46.9,99,89,75,28.75,28.61,18,10,37,0.13
2013-10-28,58.3,50.8,46.8,50.1,47.1,42.8,99,88,61,29.17,28.59,15,8,29,0.02
2013-10-29,54.9,47.0,41.7,47.1,43.2,40.2,99,87,66,29.59,29.17,16,6,29,0.02
2013-10-30,60.4,51.2,43.0,58.2,48.7,41.7,99,91,76,29.60,29.28,21,6,36,0.02
2013-10-31,60.4,51.2,47.3,51.0,47.7,45.1,99,88,67,29.53,29.35,16,7,29,0.05
2013-11-1,57.9,47.8,39.0,48.9,43.8,38.8,99,87,59,29.35,29.16,9,3,17,0.00
2013-11-2,54.3,46.0,35.6,49.4,42.9,35.3,99,89,75,29.17,28.54,27,10,45,0.17
2013-11-3,56.5,45.7,39.0,44.2,41.4,38.2,98,86,58,29.08,28.85,13,4,22,0.43
2013-11-4,53.4,42.9,33.6,47.6,38.9,33.4,99,87,64,29.02,28.84,9,3,21,0.00
2013-11-5,51.6,48.1,45.9,48.7,45.7,42.3,99,92,76,29.00,28.76,17,7,34,0.14
2013-11-6,51.1,46.9,41.7,50.8,46.6,41.5,99,99,98,29.12,28.92,8,4,16,0.05
2013-11-7,55.2,46.7,40.6,44.0,42.4,40.0,99,86,65,29.20,29.13,14,7,30,0.02
2013-11-8,54.1,44.6,39.2,43.5,40.5,37.6,96,86,67,29.23,29.14,11,5,24,0.00
2013-11-9,50.0,43.2,37.2,43.4,40.8,37.0,99,92,76,29.31,29.15,11,5,22,0.05
2013-11-10,54.1,45.0,36.1,53.9,42.2,35.9,99,91,68,29.68,29.31,9,2,18,0.15
2013-11-11,58.5,55.3,49.8,58.2,54.6,49.6,99,98,87,29.77,29.44,11,5,24,0.01
2013-11-12,54.5,47.3,41.7,49.4,43.8,40.4,99,89,64,30.12,29.76,11,4,23,0.00
2013-11-13,52.3,47.3,41.4,50.1,44.1,40.0,99,89,71,30.12,29.67,16,8,34,0.02
2013-11-14,50.0,46.8,43.7,44.9,42.3,39.6,95,85,70,30.19,29.75,14,6,25,0.02
2013-11-15,53.8,49.2,45.1,48.9,45.7,42.5,94,88,83,30.18,30.09,7,1,13,0.00
2013-11-16,55.6,51.5,50.0,52.7,48.9,46.2,99,91,84,30.08,29.96,8,2,17,0.00
2013-11-17,56.3,52.8,50.4,56.0,52.5,50.1,99,99,99,29.97,29.52,7,2,17,0.07
2013-11-18,51.8,43.4,36.5,51.5,42.4,36.2,99,97,82,29.53,29.48,8,2,20,0.12
2013-11-19,44.6,38.6,33.3,41.5,36.0,33.0,99,91,72,29.73,29.51,11,4,24,0.00
2013-11-20,48.9,45.2,41.5,45.6,39.7,33.1,99,82,64,29.50,29.26,24,9,37,0.32
2013-11-21,43.5,40.7,34.9,34.6,32.9,30.2,87,74,65,29.71,29.43,12,1,23,0.00
2013-11-22,56.3,38.8,31.8,38.4,33.8,31.4,99,84,52,29.90,29.71,5,0,10,0.00
2013-11-23,45.3,39.0,29.8,43.8,38.6,29.6,99,98,90,30.03,29.89,4,0,10,0.00
2013-11-24,45.5,45.0,44.2,45.2,44.7,44.0,99,99,99,30.11,30.02,4,0,10,0.00
2013-11-25,45.0,44.8,44.6,41.1,41.0,41.0,87,87,86,30.33,30.33,0,0,2,0.00
2013-11-26,49.1,45.8,41.9,46.1,44.2,40.6,99,94,87,30.34,30.26,4,1,12,0.00
2013-11-27,50.4,47.4,42.4,48.5,46.6,42.2,99,97,91,30.26,30.19,5,1,13,0.00
2013-11-28,51.8,49.1,47.7,51.5,48.9,47.4,99,99,99,30.23,30.12,4,0,11,0.01
2013-11-29,48.6,47.0,43.0,48.3,45.2,42.7,99,94,85,30.12,29.95,11,6,25,0.04
2013-11-30,52.9,44.7,38.5,46.8,43.8,38.2,99,97,79,30.12,30.00,9,2,14,0.00
2013-12-1,51.8,47.7,45.1,51.5,47.3,44.9,99,99,93,30.17,30.10,3,0,9,0.00
2013-12-2,49.3,46.9,44.8,48.5,45.8,42.0,99,96,86,30.15,29.99,6,0,12,0.00
2013-12-3,50.5,47.7,44.6,49.2,46.1,41.8,99,94,87,29.99,29.82,11,3,25,0.00
2013-12-4,48.6,41.8,36.3,45.1,39.4,36.1,99,92,74,30.08,29.89,6,1,17,0.00
2013-12-5,51.6,45.4,38.8,48.7,40.6,37.2,96,83,70,29.98,29.62,0,0,0,0.09
2013-12-6,51.4,44.7,37.2,50.0,44.1,37.0,99,98,90,29.96,29.90,0,0,0,0.00
2013-12-7,50.5,47.0,44.4,48.3,46.2,44.2,99,97,91,29.91,29.70,0,0,0,0.00
2013-12-8,53.8,50.7,45.3,50.5,49.1,45.1,99,94,88,29.73,29.66,0,0,0,0.00
2013-12-9,57.2,51.6,47.1,50.1,47.3,43.0,99,86,70,29.81,29.72,0,0,0,12.34
2013-12-10,58.1,54.7,52.2,54.1,50.3,45.4,98,86,65,29.79,29.70,0,0,0,0.00
2013-12-11,58.3,53.7,51.3,54.0,46.1,37.2,99,77,47,29.80,29.57,0,0,0,0.00
2013-12-12,61.3,57.6,54.7,58.8,56.0,48.9,99,95,81,29.57,29.43,0,0,0,0.05
2013-12-13,57.6,54.6,40.5,56.5,51.1,36.9,99,88,66,29.61,29.29,0,0,0,0.00
2013-12-14,54.5,49.9,40.3,53.9,47.0,31.9,99,90,71,29.61,29.09,0,0,0,1.48
2013-12-15,56.7,49.7,43.3,52.4,45.9,36.9,99,87,74,29.50,29.14,0,0,0,0.13
2013-12-16,49.8,43.9,40.5,49.4,41.3,37.2,99,91,79,29.65,29.16,0,0,0,0.30
2013-12-17,50.5,44.6,38.7,43.5,38.0,35.0,89,78,66,29.69,29.23,0,0,0,0.00
2013-12-18,57.6,50.1,40.3,54.3,47.0,36.3,99,89,77,29.22,28.35,0,0,0,0.46
2013-12-19,43.3,38.0,35.4,38.7,36.4,34.5,99,94,79,29.26,28.69,0,0,0,0.05
2013-12-20,53.4,46.4,37.0,52.8,44.5,36.5,99,93,82,29.43,29.07,0,0,0,0.34
2013-12-21,50.2,45.4,40.3,47.2,42.4,38.2,99,90,76,29.19,28.94,0,0,0,0.43
2013-12-22,42.4,38.9,35.4,40.3,37.1,34.7,99,93,83,29.25,29.02,0,0,0,0.12
2013-12-23,53.8,48.0,37.8,52.8,44.9,35.3,99,89,71,29.19,27.93,0,0,0,0.19
2013-12-24,44.2,40.3,36.3,40.6,34.3,28.9,99,80,61,28.26,27.97,0,0,0,0.19
2013-12-25,54.7,39.6,31.5,42.7,35.1,29.9,98,85,54,28.69,28.27,0,0,0,0.00
2013-12-26,52.7,42.5,36.1,50.7,39.3,35.3,99,89,70,28.92,28.01,0,0,0,0.27
2013-12-27,48.4,44.1,38.5,43.9,40.9,38.2,99,89,75,28.61,27.88,0,0,0,1.67
2013-12-28,48.4,39.9,36.7,41.1,38.3,35.9,99,94,76,29.27,28.61,0,0,0,0.01
2013-12-29,52.2,44.1,35.8,51.9,41.3,34.8,99,90,68,29.43,28.98,0,0,0,0.06
2013-12-30,52.5,46.6,41.9,52.2,44.5,38.7,99,93,80,29.19,28.82,0,0,0,0.45
2013-12-31,50.4,45.1,41.7,46.5,41.3,37.1,99,87,69,28.99,28.71,0,0,0,0.26
2014-1-1,52.5,44.7,42.3,51.8,43.4,39.4,99,95,85,28.80,28.16,0,0,0,0.19
2014-1-2,51.8,46.3,41.7,48.4,42.6,39.9,99,88,72,28.71,28.36,0,0,0,0.05